Terminal Aerodrome Forecast
Issued by NWS Wilmington, OH

Home | Current Version | Previous Version | Text Only | Print | Product List | Glossary On
Versions: 1 2 3 4 5 6 7 8 9 10 11 12 13 14 15 16 17 18 19 20 21 22 23 24 25 26 27 28 29 30 31
000
FTUS41 KILN 010300 AAA
TAFILN
TAF AMD
KILN 010329Z 0103/0124 21006KT P6SM VCSH OVC040
     FM010500 21006KT P6SM -FZRA OVC035
     FM010600 21006KT 4SM -FZRA OVC025
      TEMPO 0106/0109 OVC015
     FM011000 13004KT 4SM BR VCSH SCT012 BKN020
     FM011500 12006KT P6SM BKN025 OVC040
     FM011900 11008KT 4SM -RA BKN020
     FM012200 10008KT 1 1/2SM RA BKN008=

USA.gov is the U.S. government's official web portal to all federal, state and local government web resources and services.